Time;durP1;ratioP1;P1;durP2;ratioP2;P2;SDS_P1;SDS_P2;PMS_P1;PMS_P2;Temp;Humidity;BMP_temperature;BMP_pressure;BME280_temperature;BME280_humidity;BME280_pressure;Samples;Min_cycle;Max_cycle;Signal;HPM_P1;HPM_P2
2024/04/01 00:01:42;;;;;;;525.17;118.55;;;19.70;28.90;;;;;;5009547;28;20061;-64
2024/04/01 00:04:10;;;;;;;687.03;182.27;;;19.60;28.90;;;;;;4993881;28;21131;-65
2024/04/01 00:06:36;;;;;;;530.33;114.60;;;19.60;29.00;;;;;;5000636;28;20057;-65
2024/04/01 00:09:04;;;;;;;554.75;119.93;;;19.60;29.00;;;;;;4998996;28;20054;-63
2024/04/01 00:11:30;;;;;;;548.05;116.45;;;19.50;29.00;;;;;;5003362;28;20133;-66
2024/04/01 00:13:57;;;;;;;687.92;175.35;;;19.50;29.00;;;;;;4994303;28;20108;-64
2024/04/01 00:16:24;;;;;;;554.40;119.05;;;19.40;29.10;;;;;;5001202;28;20500;-63
2024/04/01 00:18:53;;;;;;;529.22;111.68;;;19.40;29.10;;;;;;5002242;28;20550;-65
2024/04/01 00:21:19;;;;;;;529.45;112.60;;;19.40;29.10;;;;;;4995753;28;20085;-64
2024/04/01 00:23:49;;;;;;;587.22;127.45;;;19.30;29.10;;;;;;4985695;28;20050;-63
2024/04/01 00:26:16;;;;;;;561.25;117.57;;;19.30;29.20;;;;;;5002118;28;20060;-64
2024/04/01 00:28:43;;;;;;;565.30;122.78;;;19.20;29.20;;;;;;5008399;28;20110;-63
2024/04/01 00:31:10;;;;;;;558.67;118.90;;;19.10;29.20;;;;;;5007697;28;20075;-62
2024/04/01 00:33:37;;;;;;;533.08;115.78;;;19.00;29.30;;;;;;5009535;28;20053;-64
2024/04/01 00:36:05;;;;;;;727.88;182.15;;;18.90;29.30;;;;;;4992375;28;20153;-65
2024/04/01 00:38:33;;;;;;;531.95;113.88;;;18.80;29.40;;;;;;5006556;28;20053;-65
2024/04/01 00:40:59;;;;;;;565.78;119.38;;;18.70;29.40;;;;;;4992607;28;20104;-64
2024/04/01 00:43:27;;;;;;;521.60;110.00;;;18.60;29.50;;;;;;5005153;28;20061;-64
2024/04/01 00:45:54;;;;;;;621.28;142.23;;;18.50;29.60;;;;;;5000479;28;20054;-65
2024/04/01 00:48:22;;;;;;;592.47;128.10;;;18.40;29.60;;;;;;5006683;28;20060;-67
2024/04/01 00:50:51;;;;;;;518.75;111.05;;;18.40;29.70;;;;;;4996529;28;20053;-64
2024/04/01 00:53:21;;;;;;;527.78;112.68;;;18.30;29.70;;;;;;4991704;28;20058;-65
2024/04/01 00:55:50;;;;;;;522.75;110.38;;;18.30;29.80;;;;;;5015288;28;20057;-65
2024/04/01 00:58:19;;;;;;;520.78;110.70;;;18.30;29.80;;;;;;4998824;28;20058;-65
2024/04/01 01:00:48;;;;;;;524.03;118.20;;;18.30;29.80;;;;;;5020882;28;20545;-64
2024/04/01 01:03:16;;;;;;;525.17;110.90;;;18.30;29.90;;;;;;4991541;28;20049;-63
2024/04/01 01:05:44;;;;;;;527.95;111.10;;;18.30;29.90;;;;;;5003763;28;20050;-65
2024/04/01 01:08:12;;;;;;;592.88;144.38;;;18.30;29.90;;;;;;4997138;28;20084;-64
2024/04/01 01:10:40;;;;;;;536.20;111.03;;;18.30;29.90;;;;;;4997698;28;20068;-65
2024/04/01 01:13:08;;;;;;;533.05;109.95;;;18.20;29.90;;;;;;4999349;28;20405;-65
2024/04/01 01:15:35;;;;;;;538.35;110.50;;;18.20;30.00;;;;;;4984053;28;20413;-64
2024/04/01 01:18:02;;;;;;;711.58;185.57;;;18.10;30.00;;;;;;4996455;28;20443;-65
2024/04/01 01:20:28;;;;;;;531.72;109.82;;;18.10;30.00;;;;;;4985000;28;20057;-65
2024/04/01 01:22:57;;;;;;;562.60;117.55;;;18.10;30.00;;;;;;5005392;28;20053;-65
2024/04/01 01:25:23;;;;;;;538.85;112.28;;;18.10;30.00;;;;;;5003430;28;20072;-65
2024/04/01 01:27:51;;;;;;;541.03;114.05;;;18.10;30.10;;;;;;5003711;28;20798;-64
2024/04/01 01:30:17;;;;;;;554.30;127.32;;;18.00;30.10;;;;;;4994468;28;20077;-67
2024/04/01 01:32:46;;;;;;;531.88;113.25;;;18.00;30.10;;;;;;5006971;28;20073;-66
2024/04/01 01:35:13;;;;;;;534.22;112.03;;;18.00;30.20;;;;;;5004687;28;20053;-64
2024/04/01 01:37:41;;;;;;;540.60;116.82;;;17.90;30.20;;;;;;5007432;28;20049;-66
2024/04/01 01:40:10;;;;;;;729.85;200.05;;;17.90;30.30;;;;;;4978439;28;20843;-67
2024/04/01 01:42:37;;;;;;;531.50;111.32;;;17.80;30.30;;;;;;5013836;28;20065;-65
2024/04/01 01:45:05;;;;;;;552.33;115.70;;;17.90;30.40;;;;;;5002534;28;20053;-64
2024/04/01 01:47:33;;;;;;;543.70;113.45;;;17.80;30.40;;;;;;4990528;28;20461;-63
2024/04/01 01:49:59;;;;;;;719.28;187.50;;;17.80;30.40;;;;;;4997805;28;20136;-64
2024/04/01 01:52:27;;;;;;;551.35;119.47;;;17.80;30.50;;;;;;5012376;28;20053;-64
2024/04/01 01:54:53;;;;;;;531.10;116.88;;;17.80;30.50;;;;;;4984368;28;20060;-65
2024/04/01 01:57:22;;;;;;;536.25;108.32;;;17.80;30.60;;;;;;5005339;28;20057;-64
2024/04/01 01:59:49;;;;;;;552.13;113.60;;;17.80;30.70;;;;;;5006091;28;21027;-67
2024/04/01 02:02:17;;;;;;;530.33;108.45;;;17.80;30.70;;;;;;5002656;28;20103;-64
2024/04/01 02:04:44;;;;;;;542.40;112.10;;;17.80;30.70;;;;;;5007355;28;20402;-63
2024/04/01 02:07:11;;;;;;;552.72;114.13;;;17.70;30.70;;;;;;5008989;28;20522;-64
2024/04/01 02:09:38;;;;;;;533.40;112.30;;;17.60;30.70;;;;;;4998663;28;20053;-64
2024/04/01 02:12:07;;;;;;;762.33;199.95;;;17.50;30.80;;;;;;5000071;28;20056;-69
2024/04/01 02:14:35;;;;;;;544.58;113.90;;;17.40;30.90;;;;;;5011644;28;20060;-64
2024/04/01 02:17:03;;;;;;;528.88;106.15;;;17.30;31.00;;;;;;4997680;28;20480;-64
2024/04/01 02:19:30;;;;;;;523.65;104.57;;;17.30;31.10;;;;;;5008547;28;20050;-63
2024/04/01 02:21:57;;;;;;;702.97;169.13;;;17.30;31.20;;;;;;4999841;28;20551;-65
2024/04/01 02:24:26;;;;;;;526.67;106.63;;;17.30;31.20;;;;;;5001342;28;20058;-64
2024/04/01 02:26:52;;;;;;;531.92;107.03;;;17.30;31.20;;;;;;5006121;28;20098;-65
2024/04/01 02:29:20;;;;;;;543.13;108.03;;;17.20;31.20;;;;;;5007213;28;20077;-64
2024/04/01 02:31:48;;;;;;;569.78;116.55;;;17.20;31.30;;;;;;5004127;28;20072;-64
2024/04/01 02:34:15;;;;;;;541.78;108.40;;;17.20;31.30;;;;;;4999522;28;20069;-63
2024/04/01 02:36:42;;;;;;;546.30;106.63;;;17.20;31.30;;;;;;5007534;28;20049;-65
2024/04/01 02:39:16;;;;;;;536.30;104.68;;;17.10;31.20;;;;;;5003113;28;20053;-64
2024/04/01 02:41:44;;;;;;;550.22;107.18;;;17.10;31.30;;;;;;4984668;28;20096;-65
2024/04/01 02:44:11;;;;;;;637.58;148.10;;;17.10;31.30;;;;;;5001033;28;20599;-63
2024/04/01 02:46:39;;;;;;;539.05;102.75;;;17.20;31.40;;;;;;5011236;28;20061;-64
2024/04/01 02:49:09;;;;;;;537.60;106.03;;;17.20;31.40;;;;;;4998888;28;20100;-64
2024/04/01 02:51:35;;;;;;;530.75;101.55;;;17.20;31.40;;;;;;4985614;28;20049;-63
2024/04/01 02:54:03;;;;;;;727.50;179.25;;;17.30;31.50;;;;;;5001188;28;20147;-63
2024/04/01 02:56:29;;;;;;;544.85;103.85;;;17.40;31.50;;;;;;4997409;28;20057;-64
2024/04/01 02:58:56;;;;;;;539.63;103.88;;;17.40;31.50;;;;;;4994821;28;20054;-63
2024/04/01 03:01:23;;;;;;;523.08;99.80;;;17.50;31.50;;;;;;5006527;28;20046;-64
2024/04/01 03:03:52;;;;;;;549.92;105.47;;;17.50;31.40;;;;;;5003233;28;20058;-62
2024/04/01 03:06:20;;;;;;;531.72;102.57;;;17.50;31.50;;;;;;5000876;28;20097;-66
2024/04/01 03:08:47;;;;;;;627.50;134.88;;;17.50;31.40;;;;;;4996352;28;20053;-64
2024/04/01 03:11:14;;;;;;;556.55;108.50;;;17.50;31.50;;;;;;4993272;28;20449;-64
2024/04/01 03:13:41;;;;;;;540.88;102.45;;;17.50;31.50;;;;;;5006558;28;20060;-63
2024/04/01 03:16:07;;;;;;;699.50;173.43;;;17.60;31.60;;;;;;4982682;28;20543;-64
2024/04/01 03:18:35;;;;;;;533.67;104.85;;;17.60;31.60;;;;;;5007432;28;20100;-64
2024/04/01 03:21:02;;;;;;;554.70;108.13;;;17.60;31.60;;;;;;5003343;28;20058;-64
2024/04/01 03:23:31;;;;;;;527.10;104.25;;;17.60;31.50;;;;;;5003564;28;20065;-63
2024/04/01 03:25:57;;;;;;;697.22;169.98;;;17.60;31.60;;;;;;4996759;28;20071;-63
2024/04/01 03:28:24;;;;;;;521.90;102.78;;;17.60;31.60;;;;;;4990397;28;20057;-65
2024/04/01 03:30:51;;;;;;;541.80;105.03;;;17.60;31.60;;;;;;5000119;28;20413;-64
2024/04/01 03:33:18;;;;;;;528.38;103.47;;;17.60;31.70;;;;;;5004592;28;20582;-63
2024/04/01 03:35:45;;;;;;;515.90;99.10;;;17.60;31.70;;;;;;5001785;28;20120;-64
2024/04/01 03:38:12;;;;;;;534.38;121.20;;;17.50;31.70;;;;;;4999360;28;20056;-64
2024/04/01 03:40:42;;;;;;;552.83;112.60;;;17.50;31.80;;;;;;5004568;28;20068;-64
2024/04/01 03:43:10;;;;;;;525.42;102.55;;;17.50;31.80;;;;;;4996738;28;20057;-65
2024/04/01 03:45:36;;;;;;;606.88;128.45;;;17.50;31.90;;;;;;4999084;28;20053;-63
2024/04/01 03:48:05;;;;;;;736.83;187.35;;;17.40;31.80;;;;;;4987716;28;20457;-63
2024/04/01 03:50:32;;;;;;;554.08;106.93;;;17.40;31.80;;;;;;5012279;28;20062;-65
2024/04/01 03:52:59;;;;;;;519.47;98.50;;;17.30;31.90;;;;;;5008114;28;20058;-68
2024/04/01 03:55:26;;;;;;;533.08;105.65;;;17.20;31.90;;;;;;5004218;28;20064;-65
2024/04/01 03:57:54;;;;;;;547.13;106.82;;;17.10;31.90;;;;;;5005912;28;20077;-62
2024/04/01 04:00:22;;;;;;;523.22;98.55;;;17.10;32.00;;;;;;5002731;28;20140;-63
2024/04/01 04:02:48;;;;;;;537.28;100.60;;;17.10;32.10;;;;;;5004134;28;20095;-64
2024/04/01 04:05:16;;;;;;;543.97;103.72;;;17.10;32.10;;;;;;5003193;28;20503;-65
2024/04/01 04:07:42;;;;;;;541.13;102.88;;;17.00;32.20;;;;;;4990331;28;20049;-64
2024/04/01 04:10:11;;;;;;;781.38;208.93;;;17.00;32.30;;;;;;5014099;28;20057;-66
2024/04/01 04:12:37;;;;;;;515.88;96.20;;;17.00;32.40;;;;;;5007183;28;20100;-67
2024/04/01 04:15:09;;;;;;;539.80;102.55;;;17.00;32.40;;;;;;4987934;28;20062;-64
2024/04/01 04:17:35;;;;;;;520.60;98.10;;;17.00;32.40;;;;;;5003117;28;20059;-63
2024/04/01 04:20:04;;;;;;;714.33;179.52;;;17.00;32.80;;;;;;4994156;28;20072;-64
2024/04/01 04:22:32;;;;;;;528.47;99.53;;;17.00;32.40;;;;;;5003516;28;20569;-64
2024/04/01 04:25:00;;;;;;;527.28;98.68;;;17.00;32.40;;;;;;5001700;28;20058;-63
2024/04/01 04:27:27;;;;;;;537.80;102.55;;;17.00;32.40;;;;;;5023599;28;20207;-66
2024/04/01 04:29:55;;;;;;;584.08;119.68;;;17.00;32.40;;;;;;4995427;28;20057;-66
2024/04/01 04:32:22;;;;;;;538.95;100.60;;;17.10;32.50;;;;;;5006859;28;20067;-64
2024/04/01 04:34:50;;;;;;;552.53;104.00;;;17.10;32.40;;;;;;4989158;28;20049;-63
2024/04/01 04:37:16;;;;;;;555.20;105.60;;;17.10;32.50;;;;;;4985350;28;20057;-64
2024/04/01 04:39:44;;;;;;;552.25;104.47;;;17.00;32.50;;;;;;4998042;28;20085;-66
2024/04/01 04:42:11;;;;;;;596.03;131.82;;;17.00;32.50;;;;;;5004324;28;20580;-65
2024/04/01 04:44:38;;;;;;;528.90;98.50;;;17.00;32.60;;;;;;5010275;28;20067;-63
2024/04/01 04:47:04;;;;;;;535.70;100.68;;;17.00;32.60;;;;;;5011801;28;20149;-63
2024/04/01 04:49:33;;;;;;;516.60;95.25;;;17.00;32.70;;;;;;5007700;28;20062;-63
2024/04/01 04:51:59;;;;;;;700.78;165.55;;;17.00;32.70;;;;;;4995951;28;20111;-64
2024/04/01 04:54:28;;;;;;;527.25;97.97;;;17.00;32.70;;;;;;5005639;28;20161;-62
2024/04/01 04:56:55;;;;;;;529.10;99.28;;;17.10;32.80;;;;;;5002212;28;20068;-64
2024/04/01 04:59:22;;;;;;;538.80;102.00;;;17.10;32.90;;;;;;5006462;28;20057;-65
2024/04/01 05:01:48;;;;;;;539.63;102.47;;;17.10;32.80;;;;;;4994022;28;20076;-64
2024/04/01 05:04:16;;;;;;;581.50;118.18;;;17.10;32.80;;;;;;4991379;28;20115;-65
2024/04/01 05:06:43;;;;;;;531.08;101.32;;;17.20;32.80;;;;;;4989491;28;20050;-63
2024/04/01 05:09:11;;;;;;;550.20;107.75;;;17.20;33.00;;;;;;4997656;28;20179;-64
2024/04/01 05:11:37;;;;;;;558.53;107.25;;;17.20;32.80;;;;;;4988264;28;20054;-62
2024/04/01 05:14:05;;;;;;;699.38;173.35;;;17.20;32.80;;;;;;4989095;28;20171;-63
2024/04/01 05:16:31;;;;;;;590.67;121.68;;;17.20;32.80;;;;;;4998022;28;20097;-63
2024/04/01 05:18:58;;;;;;;507.85;96.57;;;17.20;32.80;;;;;;5002193;28;20061;-62
2024/04/01 05:21:25;;;;;;;536.08;102.97;;;17.20;32.80;;;;;;5000049;28;20527;-65
2024/04/01 05:23:54;;;;;;;551.63;106.32;;;17.20;32.90;;;;;;4986645;28;20050;-62
2024/04/01 05:26:21;;;;;;;569.42;116.20;;;17.30;33.00;;;;;;5006624;28;20065;-64
2024/04/01 05:28:48;;;;;;;546.95;107.78;;;17.30;32.90;;;;;;5005517;28;20060;-65
2024/04/01 05:31:15;;;;;;;551.67;106.57;;;17.40;32.90;;;;;;5009028;28;20046;-64
2024/04/01 05:33:42;;;;;;;561.63;108.57;;;17.40;32.90;;;;;;5000381;28;20062;-63
2024/04/01 05:36:09;;;;;;;719.70;181.20;;;17.50;33.10;;;;;;5000346;28;20053;-68
2024/04/01 05:38:36;;;;;;;554.00;108.70;;;17.60;33.00;;;;;;4989249;28;20076;-66
2024/04/01 05:41:04;;;;;;;523.95;100.03;;;17.70;33.10;;;;;;5002488;28;20191;-65
2024/04/01 05:43:31;;;;;;;539.05;104.30;;;17.80;33.00;;;;;;4999594;28;20144;-66
2024/04/01 05:45:58;;;;;;;700.90;171.32;;;18.00;33.10;;;;;;4995651;28;20057;-67
2024/04/01 05:48:25;;;;;;;521.88;101.03;;;18.10;33.00;;;;;;5000847;28;20058;-64
2024/04/01 05:50:52;;;;;;;531.13;104.35;;;18.20;33.00;;;;;;5003901;28;20050;-64
2024/04/01 05:53:22;;;;;;;526.35;102.30;;;18.30;33.00;;;;;;5010217;28;20102;-63
2024/04/01 05:55:48;;;;;;;521.33;102.03;;;18.30;32.90;;;;;;4998561;28;20057;-63
2024/04/01 05:58:17;;;;;;;542.58;107.32;;;18.40;32.90;;;;;;4991585;28;20069;-62
2024/04/01 06:00:43;;;;;;;529.80;104.40;;;18.40;32.90;;;;;;5000376;28;20064;-68
2024/04/01 06:03:11;;;;;;;543.20;109.68;;;18.40;32.90;;;;;;4996368;28;20054;-66
2024/04/01 06:05:37;;;;;;;548.53;109.90;;;18.50;33.00;;;;;;4995801;28;20056;-66
2024/04/01 06:08:05;;;;;;;716.75;188.73;;;18.40;33.00;;;;;;5000048;28;20108;-64
2024/04/01 06:10:36;;;;;;;525.65;103.32;;;18.40;33.10;;;;;;5000709;28;20108;-64
2024/04/01 06:13:03;;;;;;;519.60;100.97;;;18.40;33.10;;;;;;5014272;28;20553;-65
2024/04/01 06:15:31;;;;;;;534.28;105.55;;;18.50;33.20;;;;;;5001897;28;20465;-64
2024/04/01 06:17:58;;;;;;;688.40;171.75;;;18.60;33.30;;;;;;4997518;28;20069;-62
2024/04/01 06:20:25;;;;;;;538.08;110.22;;;18.70;33.20;;;;;;5003448;28;20765;-66
2024/04/01 06:22:52;;;;;;;522.55;104.03;;;18.80;33.20;;;;;;5005704;28;20061;-64
2024/04/01 06:25:18;;;;;;;528.28;106.07;;;18.90;33.20;;;;;;5011985;28;20058;-67
2024/04/01 06:27:46;;;;;;;532.65;107.13;;;19.00;33.10;;;;;;5007086;28;20100;-63
2024/04/01 06:30:13;;;;;;;540.40;122.68;;;19.10;33.20;;;;;;4997559;28;20061;-63
2024/04/01 06:32:41;;;;;;;521.08;106.80;;;19.20;33.20;;;;;;5008528;28;20061;-66
2024/04/01 06:35:08;;;;;;;549.00;110.15;;;19.30;33.90;;;;;;5006275;28;20049;-63
2024/04/01 06:37:35;;;;;;;548.40;113.13;;;19.40;33.20;;;;;;5001257;28;20045;-63
2024/04/01 06:40:02;;;;;;;719.97;195.75;;;19.50;33.10;;;;;;4977880;28;20425;-63
2024/04/01 06:42:29;;;;;;;540.72;111.22;;;19.70;33.20;;;;;;4988076;28;20061;-64
2024/04/01 06:44:56;;;;;;;567.00;122.18;;;19.70;33.00;;;;;;5003108;28;20050;-62
2024/04/01 06:47:23;;;;;;;531.78;109.55;;;19.70;33.00;;;;;;5015208;28;20057;-66
2024/04/01 06:49:51;;;;;;;554.53;117.57;;;19.70;33.00;;;;;;5003306;28;20505;-63
2024/04/01 06:52:18;;;;;;;525.92;106.93;;;19.70;33.10;;;;;;5003239;28;20057;-63
2024/04/01 06:54:45;;;;;;;588.17;129.85;;;19.70;33.10;;;;;;5009030;28;20054;-63
2024/04/01 06:57:12;;;;;;;537.20;110.30;;;19.70;33.10;;;;;;5011600;28;20057;-64
2024/04/01 06:59:39;;;;;;;560.47;119.60;;;19.70;33.20;;;;;;5010003;28;20058;-63
2024/04/01 07:02:06;;;;;;;701.47;189.23;;;19.80;33.20;;;;;;4984520;28;20041;-63
2024/04/01 07:04:33;;;;;;;578.05;125.95;;;19.90;33.20;;;;;;5016910;28;20058;-63
2024/04/01 07:07:01;;;;;;;570.65;122.55;;;19.90;33.30;;;;;;4998840;28;20053;-65
2024/04/01 07:09:28;;;;;;;560.58;118.75;;;20.00;33.40;;;;;;5012623;28;20119;-63
2024/04/01 07:11:55;;;;;;;624.25;143.85;;;20.10;33.40;;;;;;4992277;28;20049;-67
2024/04/01 07:14:21;;;;;;;540.75;115.57;;;20.20;33.40;;;;;;5014949;28;20064;-65
2024/04/01 07:16:49;;;;;;;558.08;119.10;;;20.40;33.50;;;;;;5005508;28;20543;-64
2024/04/01 07:19:15;;;;;;;539.78;118.85;;;20.50;33.50;;;;;;4996676;28;20251;-63
2024/04/01 07:21:43;;;;;;;547.70;118.43;;;20.70;33.50;;;;;;4992407;28;20107;-63
2024/04/01 07:24:10;;;;;;;767.60;213.05;;;20.90;34.00;;;;;;5003282;28;20057;-62
2024/04/01 07:26:38;;;;;;;568.33;128.52;;;21.20;33.40;;;;;;5013805;28;20405;-63
2024/04/01 07:29:04;;;;;;;566.70;127.70;;;21.50;33.50;;;;;;5005836;28;20803;-63
2024/04/01 07:31:32;;;;;;;547.00;125.15;;;21.90;33.40;;;;;;5004633;28;20054;-66
2024/04/01 07:33:58;;;;;;;711.47;199.38;;;22.40;34.10;;;;;;5005803;28;20045;-64
2024/04/01 07:36:25;;;;;;;553.80;134.20;;;22.90;33.20;;;;;;5007916;28;20448;-63
2024/04/01 07:38:52;;;;;;;568.67;144.65;;;23.40;33.20;;;;;;4989033;28;20084;-64
2024/04/01 07:41:21;;;;;;;568.88;153.77;;;24.50;33.60;;;;;;5018890;28;20048;-65
2024/04/01 07:43:47;;;;;;;551.10;168.82;;;26.50;33.10;;;;;;5004762;28;20054;-64
2024/04/01 07:46:15;;;;;;;561.65;195.65;;;28.60;31.50;;;;;;5000313;28;21249;-63
2024/04/01 07:48:41;;;;;;;577.55;225.68;;;30.40;30.20;;;;;;5001790;28;20050;-64
2024/04/01 07:51:08;;;;;;;577.53;257.98;;;32.40;29.70;;;;;;5010345;28;20073;-64
2024/04/01 07:53:35;;;;;;;597.80;302.00;;;34.30;29.10;;;;;;5002807;28;20069;-64
2024/04/01 07:56:03;;;;;;;773.03;412.90;;;36.30;28.40;;;;;;5005640;28;20084;-65
2024/04/01 07:58:31;;;;;;;603.08;361.92;;;38.00;27.50;;;;;;4994864;28;20107;-64
2024/04/01 08:00:59;;;;;;;602.88;386.38;;;38.60;26.50;;;;;;5007228;28;20061;-65
2024/04/01 08:03:25;;;;;;;624.58;424.80;;;39.60;26.50;;;;;;5008869;28;20045;-64
2024/04/01 08:05:53;;;;;;;644.55;442.52;;;40.60;26.00;;;;;;5003073;28;20061;-65
2024/04/01 08:08:19;;;;;;;623.28;431.13;;;41.00;25.20;;;;;;5003800;28;20475;-65
2024/04/01 08:10:47;;;;;;;622.80;425.35;;;40.30;24.80;;;;;;5007901;28;20057;-69
2024/04/01 08:13:14;;;;;;;619.65;420.50;;;39.60;25.00;;;;;;5011167;28;20053;-68
2024/04/01 08:15:43;;;;;;;616.28;420.38;;;39.10;25.30;;;;;;4998097;28;20073;-71
2024/04/01 08:18:09;;;;;;;829.03;497.75;;;38.80;25.20;;;;;;4983151;28;20053;-66
2024/04/01 08:20:37;;;;;;;618.40;401.67;;;38.50;25.20;;;;;;5004818;28;20428;-67
2024/04/01 08:23:03;;;;;;;603.85;400.52;;;38.10;25.20;;;;;;4986487;28;20045;-68
2024/04/01 08:25:31;;;;;;;657.00;414.95;;;38.20;25.40;;;;;;5001999;28;20061;-66
2024/04/01 08:27:58;;;;;;;751.63;447.95;;;38.10;25.30;;;;;;4976947;28;20050;-66
2024/04/01 08:30:26;;;;;;;629.95;395.90;;;37.90;25.10;;;;;;5004258;28;20065;-67
2024/04/01 08:32:54;;;;;;;608.28;381.45;;;37.50;25.10;;;;;;5002573;28;20077;-73
2024/04/01 08:35:21;;;;;;;624.22;372.85;;;37.00;25.20;;;;;;5008120;28;20073;-69
2024/04/01 08:37:47;;;;;;;608.17;358.85;;;36.30;25.20;;;;;;5006221;28;20054;-68
2024/04/01 08:40:15;;;;;;;659.28;375.02;;;35.40;25.20;;;;;;4992933;28;20065;-68
2024/04/01 08:42:46;;;;;;;610.38;353.00;;;34.90;26.00;;;;;;5012540;28;20057;-66
2024/04/01 08:45:14;;;;;;;622.20;365.75;;;35.60;26.50;;;;;;5003301;28;20069;-67
2024/04/01 08:47:43;;;;;;;622.70;386.27;;;36.80;26.50;;;;;;5006218;28;20118;-67
2024/04/01 08:50:20;;;;;;;731.90;447.92;;;38.00;26.00;;;;;;4992788;28;20061;-68
2024/04/01 08:52:52;;;;;;;608.05;393.83;;;38.90;25.40;;;;;;4990700;28;20050;-68
2024/04/01 08:55:21;;;;;;;612.50;393.20;;;39.00;24.90;;;;;;5010620;28;20065;-69
2024/04/01 08:57:48;;;;;;;601.08;381.52;;;38.50;24.70;;;;;;5004163;28;20068;-67
2024/04/01 09:00:15;;;;;;;629.25;383.92;;;37.80;24.70;;;;;;4991446;28;20239;-70
2024/04/01 09:02:42;;;;;;;574.63;324.38;;;37.30;24.90;;;;;;5010598;28;20068;-68
2024/04/01 09:05:09;;;;;;;599.97;369.67;;;36.70;25.10;;;;;;4982077;28;20049;-65
2024/04/01 09:07:37;;;;;;;620.90;367.52;;;36.20;25.20;;;;;;5003309;28;20069;-66
2024/04/01 09:10:05;;;;;;;831.72;447.20;;;36.40;25.60;;;;;;4997283;28;20054;-68
2024/04/01 09:12:32;;;;;;;606.05;381.75;;;36.60;25.40;;;;;;5015948;28;20053;-67
2024/04/01 09:15:00;;;;;;;692.92;416.70;;;37.30;25.60;;;;;;5000174;28;20050;-67
2024/04/01 09:17:27;;;;;;;603.67;389.58;;;37.80;25.00;;;;;;5000468;28;20057;-67
2024/04/01 09:20:01;;;;;;;665.90;393.95;;;37.70;24.60;;;;;;4993897;28;20053;-68
2024/04/01 09:22:27;;;;;;;665.63;378.17;;;37.20;24.50;;;;;;5004886;28;20053;-66
2024/04/01 09:24:56;;;;;;;602.42;362.20;;;36.60;24.70;;;;;;4989686;28;20315;-67
2024/04/01 09:27:25;;;;;;;618.75;360.33;;;36.20;24.80;;;;;;4990559;28;20051;-68
2024/04/01 09:29:53;;;;;;;602.28;344.70;;;35.60;24.90;;;;;;4999102;28;20058;-65
2024/04/01 09:32:21;;;;;;;604.88;335.92;;;35.10;25.00;;;;;;4996466;28;20057;-66
2024/04/01 09:34:48;;;;;;;604.92;328.23;;;34.50;25.10;;;;;;5007150;28;20067;-69
2024/04/01 09:37:15;;;;;;;607.85;317.90;;;34.00;25.20;;;;;;5000652;28;20049;-66
2024/04/01 09:39:44;;;;;;;632.40;316.65;;;33.50;25.40;;;;;;5002469;28;20061;-66
2024/04/01 09:42:14;;;;;;;715.55;357.55;;;33.10;25.50;;;;;;4998471;28;20516;-66
2024/04/01 09:44:42;;;;;;;605.28;291.92;;;32.80;25.60;;;;;;4993013;28;20054;-67
2024/04/01 09:47:09;;;;;;;588.70;275.42;;;32.50;25.50;;;;;;4987266;28;20046;-67
2024/04/01 09:49:38;;;;;;;604.63;269.02;;;31.80;25.40;;;;;;5000576;28;20079;-66
2024/04/01 09:52:06;;;;;;;772.80;329.48;;;30.90;25.40;;;;;;4997712;28;20052;-66
2024/04/01 09:54:33;;;;;;;591.90;238.15;;;29.90;25.50;;;;;;5000843;28;20057;-66
2024/04/01 09:57:30;;;;;;;607.15;234.30;;;29.00;25.80;;;;;;5002511;28;20045;-69
2024/04/01 10:00:26;;;;;;;752.45;269.85;;;28.00;26.00;;;;;;4980670;28;20119;-72
2024/04/01 10:03:27;;;;;;;552.83;177.63;;;26.90;26.40;;;;;;4998100;28;20064;-74
2024/04/01 10:06:25;;;;;;;587.58;176.60;;;25.90;26.70;;;;;;4995845;28;20651;-73
2024/04/01 10:09:42;;;;;;;570.08;161.55;;;25.10;27.10;;;;;;5002017;28;20615;-74
2024/04/01 10:12:41;;;;;;;671.27;201.67;;;24.30;27.50;;;;;;5008553;28;20502;-75
2024/04/01 10:15:36;;;;;;;568.67;145.80;;;23.70;27.80;;;;;;4984077;28;20067;-72
2024/04/01 10:18:10;;;;;;;768.10;231.23;;;23.20;28.10;;;;;;4998561;28;20410;-72
2024/04/01 10:21:10;;;;;;;544.83;131.88;;;22.70;28.30;;;;;;5010565;28;20121;-71
2024/04/01 10:24:19;;;;;;;529.42;122.50;;;22.20;28.70;;;;;;4983217;28;20053;-71
2024/04/01 10:27:23;;;;;;;551.72;125.57;;;21.90;28.90;;;;;;5000574;28;20058;-73
2024/04/01 10:30:08;;;;;;;559.15;128.52;;;21.70;29.10;;;;;;4996637;28;20071;-68
2024/04/01 10:33:24;;;;;;;530.72;117.57;;;21.50;29.20;;;;;;4998394;28;20108;-72
2024/04/01 10:36:08;;;;;;;542.95;118.32;;;21.20;29.30;;;;;;4991239;28;20104;-69
2024/04/01 10:39:10;;;;;;;545.55;119.28;;;20.90;29.40;;;;;;4997730;28;20062;-73
2024/04/01 10:42:19;;;;;;;558.10;123.88;;;20.70;29.50;;;;;;5009809;28;20069;-69
2024/04/01 10:45:19;;;;;;;523.95;112.50;;;20.50;29.70;;;;;;5010886;28;20057;-69
2024/04/01 10:48:14;;;;;;;577.50;122.90;;;20.20;29.80;;;;;;5009421;28;20889;-70
2024/04/01 10:51:08;;;;;;;539.97;111.65;;;20.10;30.00;;;;;;5010824;28;20079;-70
2024/04/01 10:54:00;;;;;;;562.58;119.55;;;19.90;30.00;;;;;;5004777;28;20057;-70
2024/04/01 10:57:14;;;;;;;556.10;114.63;;;19.80;30.20;;;;;;5013097;28;20442;-69
2024/04/01 11:00:15;;;;;;;519.97;108.07;;;19.70;30.40;;;;;;5010127;28;20435;-69
2024/04/01 11:03:27;;;;;;;526.80;108.95;;;19.60;30.50;;;;;;5012477;28;20071;-68
2024/04/01 11:06:19;;;;;;;565.67;122.15;;;19.60;30.70;;;;;;5001097;28;20054;-70
2024/04/01 11:08:56;;;;;;;550.55;113.60;;;19.40;30.70;;;;;;5004763;28;20049;-67
2024/04/01 11:11:37;;;;;;;546.67;110.47;;;19.30;30.90;;;;;;5008702;28;20131;-68
2024/04/01 11:14:05;;;;;;;691.45;181.15;;;19.20;31.10;;;;;;4999179;28;20077;-67
2024/04/01 11:16:34;;;;;;;568.33;118.88;;;19.20;31.10;;;;;;5005342;28;20057;-67
2024/04/01 11:19:22;;;;;;;516.97;104.15;;;19.30;31.10;;;;;;4986992;28;20050;-70
2024/04/01 11:21:52;;;;;;;521.15;106.13;;;19.30;31.10;;;;;;5005151;28;20089;-66
2024/04/01 11:24:36;;;;;;;536.85;109.90;;;19.40;31.10;;;;;;4986762;28;20416;-67
2024/04/01 11:27:22;;;;;;;544.72;110.88;;;19.40;31.10;;;;;;4989579;28;20473;-68
2024/04/01 11:30:10;;;;;;;518.92;101.88;;;19.30;31.10;;;;;;5011251;28;20148;-68
2024/04/01 11:32:41;;;;;;;521.03;103.03;;;19.20;31.10;;;;;;5005266;28;20157;-66
2024/04/01 11:35:13;;;;;;;572.45;121.25;;;19.10;31.20;;;;;;5010043;28;20057;-69
2024/04/01 11:37:54;;;;;;;511.27;102.35;;;19.00;31.40;;;;;;4998475;28;20136;-67
2024/04/01 11:40:27;;;;;;;508.42;98.80;;;18.80;31.60;;;;;;4997902;28;20142;-67
2024/04/01 11:42:59;;;;;;;501.42;95.95;;;18.50;31.60;;;;;;4998512;28;20043;-66
2024/04/01 11:45:30;;;;;;;523.53;101.80;;;18.40;31.90;;;;;;5001739;28;20140;-70
2024/04/01 11:47:59;;;;;;;664.10;158.02;;;18.30;32.00;;;;;;4992713;28;20276;-66
2024/04/01 11:50:27;;;;;;;540.13;105.25;;;18.10;32.30;;;;;;5001719;28;20107;-69
2024/04/01 11:52:58;;;;;;;515.22;96.28;;;17.90;32.20;;;;;;4991614;28;20107;-67
2024/04/01 11:55:26;;;;;;;533.63;99.70;;;17.70;32.50;;;;;;4994628;28;20089;-68
2024/04/01 11:57:54;;;;;;;551.30;107.57;;;17.50;32.80;;;;;;4987361;28;20147;-65
2024/04/01 12:00:20;;;;;;;518.60;96.18;;;17.30;32.90;;;;;;5013589;28;20140;-72
2024/04/01 12:02:55;;;;;;;536.55;102.20;;;17.10;33.20;;;;;;5007788;28;20092;-67
2024/04/01 12:05:21;;;;;;;534.60;101.90;;;16.80;33.80;;;;;;5006298;28;20076;-67
2024/04/01 12:07:55;;;;;;;531.90;99.85;;;16.60;33.50;;;;;;4999552;28;20145;-70
2024/04/01 12:10:26;;;;;;;520.53;95.65;;;16.40;33.90;;;;;;5006751;28;20064;-69
2024/04/01 12:12:55;;;;;;;517.30;93.18;;;16.30;33.90;;;;;;5018246;28;20048;-66
2024/04/01 12:15:22;;;;;;;519.50;96.22;;;16.20;34.10;;;;;;5005350;28;20062;-68
2024/04/01 12:17:50;;;;;;;518.75;94.05;;;16.10;34.20;;;;;;5009421;28;20054;-72
2024/04/01 12:20:18;;;;;;;512.85;96.05;;;15.90;34.30;;;;;;5009230;28;20049;-67
2024/04/01 12:22:49;;;;;;;499.73;88.22;;;15.80;34.50;;;;;;4998756;28;20037;-69
2024/04/01 12:25:16;;;;;;;517.70;93.85;;;15.80;34.70;;;;;;4992050;28;20046;-68